Time;durP1;ratioP1;P1;durP2;ratioP2;P2;SDS_P1;SDS_P2;PMS_P1;PMS_P2;Temp;Humidity;BMP_temperature;BMP_pressure;BME280_temperature;BME280_humidity;BME280_pressure;Samples;Min_cycle;Max_cycle;Signal;HPM_P1;HPM_P2
2023/01/07 00:00:15;;;;;;;14.57;8.20;;;;;;;7.65;99.15;101342.19;4935665;29;20259;-74
2023/01/07 00:02:45;;;;;;;11.52;9.35;;;;;;;7.58;99.36;101341.16;4940379;29;20201;-74
2023/01/07 00:05:15;;;;;;;12.82;8.60;;;;;;;7.54;99.55;101340.69;4939760;29;20272;-73
2023/01/07 00:07:44;;;;;;;9.73;8.52;;;;;;;7.49;99.84;101345.75;4938910;29;20212;-74
2023/01/07 00:10:13;;;;;;;16.25;9.45;;;;;;;7.52;99.98;101341.84;4936944;29;20603;-74
2023/01/07 00:12:42;;;;;;;10.25;8.57;;;;;;;7.48;100.00;101340.50;4937756;29;20614;-73
2023/01/07 00:15:12;;;;;;;10.02;8.20;;;;;;;7.49;100.00;101331.44;4936696;29;20213;-73
2023/01/07 00:17:41;;;;;;;9.80;7.90;;;;;;;7.43;100.00;101323.03;4937307;29;20256;-74
2023/01/07 00:20:12;;;;;;;12.10;8.60;;;;;;;7.57;100.00;101312.56;4936810;29;20197;-73
2023/01/07 00:22:41;;;;;;;11.70;8.93;;;;;;;7.46;100.00;101320.97;4937161;29;20231;-73
2023/01/07 00:25:10;;;;;;;16.77;8.80;;;;;;;7.62;100.00;101327.19;4936290;29;20220;-74
2023/01/07 00:27:40;;;;;;;16.60;10.18;;;;;;;7.55;99.75;101317.28;4936816;29;20216;-71
2023/01/07 00:30:10;;;;;;;11.50;9.05;;;;;;;7.70;98.83;101320.91;4936349;29;20197;-73
2023/01/07 00:32:58;;;;;;;8.90;7.82;;;;;;;7.72;98.86;101327.00;4935667;29;20639;-73
2023/01/07 00:35:29;;;;;;;11.73;8.88;;;;;;;7.64;98.67;101330.56;4937208;29;20797;-73
2023/01/07 00:37:58;;;;;;;11.43;9.23;;;;;;;7.76;98.43;101339.09;4917554;29;20200;-71
2023/01/07 00:40:27;;;;;;;14.88;8.93;;;;;;;7.79;98.35;101322.59;4931951;29;20200;-72
2023/01/07 00:43:00;;;;;;;10.68;9.20;;;;;;;7.75;98.26;101322.09;4936751;29;20231;-71
2023/01/07 00:45:31;;;;;;;9.98;8.57;;;;;;;7.80;98.15;101325.09;4936509;29;20223;-73
2023/01/07 00:48:01;;;;;;;11.00;7.95;;;;;;;7.68;97.98;101329.19;4934921;29;20235;-71
2023/01/07 00:50:35;;;;;;;11.25;8.65;;;;;;;7.69;98.06;101328.19;4935180;29;20248;-72
2023/01/07 00:53:05;;;;;;;8.70;7.43;;;;;;;7.53;98.90;101328.22;4936527;28;20292;-72
2023/01/07 00:55:34;;;;;;;9.38;7.47;;;;;;;7.40;99.37;101328.75;4936487;29;20694;-72
2023/01/07 00:58:03;;;;;;;14.70;9.20;;;;;;;7.48;99.57;101329.75;4936834;29;20227;-72
2023/01/07 01:00:32;;;;;;;12.43;7.53;;;;;;;7.65;99.06;101336.78;4937171;29;20215;-70
2023/01/07 01:03:02;;;;;;;11.95;7.70;;;;;;;7.48;98.78;101332.44;4937241;29;20220;-72
2023/01/07 01:05:33;;;;;;;10.02;8.30;;;;;;;7.41;99.34;101341.19;4934435;29;20227;-73
2023/01/07 01:08:02;;;;;;;13.88;9.25;;;;;;;7.36;99.27;101342.72;4934102;29;20205;-73
2023/01/07 01:10:31;;;;;;;8.63;7.78;;;;;;;7.29;100.00;101341.72;4918622;29;20730;-72
2023/01/07 01:13:01;;;;;;;9.38;7.75;;;;;;;7.31;100.00;101335.16;4933649;29;20255;-73
2023/01/07 01:15:30;;;;;;;10.40;8.07;;;;;;;7.20;100.00;101332.81;4937018;29;20217;-71
2023/01/07 01:17:59;;;;;;;10.98;8.35;;;;;;;7.42;100.00;101337.50;4934493;29;20218;-71
2023/01/07 01:20:28;;;;;;;8.07;7.25;;;;;;;7.37;100.00;101339.84;4935808;29;20245;-73
2023/01/07 01:22:59;;;;;;;10.57;7.35;;;;;;;7.28;100.00;101334.66;4934992;29;20232;-71
2023/01/07 01:25:28;;;;;;;9.82;8.45;;;;;;;7.46;100.00;101350.59;4934611;29;20228;-73
2023/01/07 01:27:57;;;;;;;12.40;8.15;;;;;;;7.34;100.00;101345.59;4935493;29;20220;-71
2023/01/07 01:30:27;;;;;;;7.70;6.68;;;;;;;7.24;100.00;101339.53;4934041;29;20188;-75
2023/01/07 01:32:57;;;;;;;8.63;6.93;;;;;;;7.26;100.00;101345.59;4934278;29;20762;-69
2023/01/07 01:35:26;;;;;;;11.93;7.57;;;;;;;7.40;100.00;101336.84;4934047;29;20230;-72
2023/01/07 01:37:56;;;;;;;9.45;7.35;;;;;;;7.35;100.00;101344.59;4934151;29;20192;-73
2023/01/07 01:40:30;;;;;;;12.23;6.70;;;;;;;7.44;100.00;101337.34;4929207;29;20195;-73
2023/01/07 01:43:00;;;;;;;7.43;5.95;;;;;;;7.37;100.00;101330.94;4935048;29;20651;-71
2023/01/07 01:45:29;;;;;;;8.38;6.38;;;;;;;7.29;100.00;101337.19;4919722;29;20221;-72
2023/01/07 01:48:04;;;;;;;7.40;5.03;;;;;;;7.24;100.00;101328.78;4935583;29;20288;-71
2023/01/07 01:50:38;;;;;;;8.32;5.70;;;;;;;7.24;100.00;101326.09;4922309;29;20193;-73
2023/01/07 01:53:11;;;;;;;9.32;6.43;;;;;;;7.32;100.00;101328.75;4938238;29;20204;-74
2023/01/07 01:55:50;;;;;;;7.80;6.18;;;;;;;7.31;100.00;101327.06;4933807;29;20606;-73
2023/01/07 01:58:23;;;;;;;7.55;5.25;;;;;;;7.27;100.00;101328.44;4937824;29;20185;-73
2023/01/07 02:00:53;;;;;;;10.90;5.88;;;;;;;7.48;100.00;101318.97;4917834;29;20734;-73
2023/01/07 02:03:27;;;;;;;7.97;6.05;;;;;;;7.53;100.00;101332.75;4919593;29;20600;-73
2023/01/07 02:05:56;;;;;;;8.45;6.40;;;;;;;7.54;100.00;101323.69;4934484;29;20746;-74
2023/01/07 02:08:25;;;;;;;8.93;6.25;;;;;;;7.64;100.00;101324.31;4931066;29;20201;-73
2023/01/07 02:11:12;;;;;;;7.30;5.95;;;;;;;7.55;100.00;101314.59;4940461;29;20761;-73
2023/01/07 02:14:05;;;;;;;7.20;6.50;;;;;;;7.50;100.00;101316.97;4932603;29;20220;-72
2023/01/07 02:16:44;;;;;;;11.38;8.10;;;;;;;7.47;100.00;101312.75;4933921;29;20287;-74
2023/01/07 02:19:49;;;;;;;9.35;7.97;;;;;;;7.53;100.00;101306.69;4935308;28;20200;-72
2023/01/07 02:22:33;;;;;;;9.10;7.25;;;;;;;7.53;100.00;101312.06;4934224;29;20212;-73
2023/01/07 02:25:28;;;;;;;10.27;7.60;;;;;;;7.57;100.00;101297.22;4933717;29;20230;-71
2023/01/07 02:28:20;;;;;;;9.18;7.18;;;;;;;7.60;100.00;101296.06;4933294;29;20200;-72
2023/01/07 02:31:22;;;;;;;7.65;6.85;;;;;;;7.58;100.00;101304.31;4931865;29;20272;-72
2023/01/07 02:33:58;;;;;;;12.30;8.50;;;;;;;7.57;100.00;101297.22;4914995;29;20578;-72
2023/01/07 02:36:42;;;;;;;11.43;9.27;;;;;;;7.51;100.00;101292.53;4917172;29;20216;-72
2023/01/07 02:39:36;;;;;;;10.63;7.50;;;;;;;7.50;100.00;101284.66;4934202;29;20193;-72
2023/01/07 02:42:16;;;;;;;9.48;7.20;;;;;;;7.33;100.00;101287.38;4934273;29;20196;-71
2023/01/07 02:44:54;;;;;;;9.07;7.57;;;;;;;7.40;100.00;101285.69;4917276;29;20664;-73
2023/01/07 02:47:28;;;;;;;10.43;6.50;;;;;;;7.34;100.00;101283.66;4931548;29;20200;-73
2023/01/07 02:50:01;;;;;;;7.30;5.95;;;;;;;7.28;100.00;101286.19;4933460;29;20698;-72
2023/01/07 02:52:35;;;;;;;9.80;6.75;;;;;;;7.30;100.00;101290.41;4932593;29;20200;-73
2023/01/07 02:55:08;;;;;;;10.48;8.05;;;;;;;7.27;100.00;101285.34;4934154;29;20709;-73
2023/01/07 02:58:01;;;;;;;11.20;7.13;;;;;;;7.18;100.00;101291.75;4930028;29;20204;-74
2023/01/07 03:00:55;;;;;;;9.52;6.05;;;;;;;7.08;100.00;101288.41;4930105;29;20211;-72
2023/01/07 03:03:47;;;;;;;8.75;7.32;;;;;;;7.12;100.00;101283.53;4915118;29;20198;-71
2023/01/07 03:06:36;;;;;;;8.50;6.70;;;;;;;6.94;100.00;101283.72;4933389;29;20217;-72
2023/01/07 03:09:10;;;;;;;7.03;6.30;;;;;;;7.06;100.00;101274.31;4933167;29;20638;-74
2023/01/07 03:11:47;;;;;;;8.77;5.80;;;;;;;7.07;100.00;101275.16;4934946;29;20563;-73
2023/01/07 03:14:20;;;;;;;7.80;6.18;;;;;;;7.09;100.00;101276.63;4933291;29;20216;-72
2023/01/07 03:16:55;;;;;;;7.90;6.10;;;;;;;7.11;100.00;101285.41;4915559;29;20235;-71
2023/01/07 03:19:29;;;;;;;8.95;7.35;;;;;;;7.06;100.00;101287.75;4929662;29;20193;-72
2023/01/07 03:22:02;;;;;;;15.93;7.30;;;;;;;7.19;100.00;101287.22;4933619;29;20295;-71
2023/01/07 03:24:33;;;;;;;8.85;7.00;;;;;;;7.10;100.00;101282.88;4936352;29;20212;-72
2023/01/07 03:27:06;;;;;;;13.02;7.22;;;;;;;7.26;100.00;101278.28;4936981;29;20197;-73
2023/01/07 03:29:35;;;;;;;8.63;6.13;;;;;;;7.19;100.00;101282.69;4920060;29;20209;-72
2023/01/07 03:32:11;;;;;;;8.57;7.03;;;;;;;7.25;100.00;101275.78;4921395;29;20201;-72
2023/01/07 03:34:42;;;;;;;13.90;8.02;;;;;;;7.28;100.00;101287.03;4923056;29;20238;-72
2023/01/07 03:37:15;;;;;;;8.65;7.57;;;;;;;7.34;100.00;101289.06;4940944;29;20560;-74
2023/01/07 03:39:47;;;;;;;11.18;8.95;;;;;;;7.32;100.00;101284.84;4941146;29;20204;-71
2023/01/07 03:42:40;;;;;;;14.57;10.05;;;;;;;7.40;100.00;101296.47;4925925;29;20524;-72
2023/01/07 03:45:15;;;;;;;11.60;8.70;;;;;;;7.46;100.00;101291.34;4923300;29;20244;-72
2023/01/07 03:47:48;;;;;;;12.18;10.38;;;;;;;7.38;100.00;101282.31;4924437;29;20204;-71
2023/01/07 03:50:21;;;;;;;15.13;11.30;;;;;;;7.46;100.00;101283.28;4937991;29;20555;-74
2023/01/07 03:52:53;;;;;;;18.55;11.43;;;;;;;7.43;100.00;101282.63;4920335;29;20240;-72
2023/01/07 03:55:24;;;;;;;12.98;11.57;;;;;;;7.32;100.00;101274.06;4930055;29;20216;-72
2023/01/07 03:57:56;;;;;;;18.92;10.80;;;;;;;7.39;100.00;101261.63;4937615;29;20750;-72
2023/01/07 04:00:26;;;;;;;17.30;11.20;;;;;;;7.41;100.00;101260.41;4941428;29;20235;-73
2023/01/07 04:03:11;;;;;;;21.00;12.15;;;;;;;7.40;100.00;101248.00;4920201;29;20765;-73
2023/01/07 04:05:44;;;;;;;17.08;10.52;;;;;;;7.26;100.00;101242.47;4935366;29;20228;-72
2023/01/07 04:08:15;;;;;;;12.27;10.20;;;;;;;7.27;100.00;101236.91;4934962;29;20196;-73
2023/01/07 04:10:44;;;;;;;13.35;9.02;;;;;;;7.25;100.00;101244.31;4937258;29;20204;-73
2023/01/07 04:13:14;;;;;;;15.20;10.02;;;;;;;7.32;100.00;101249.84;4934650;29;20220;-72
2023/01/07 04:15:45;;;;;;;11.25;7.82;;;;;;;7.22;100.00;101247.34;4935713;29;20254;-73
2023/01/07 04:18:14;;;;;;;14.93;9.10;;;;;;;7.15;100.00;101240.97;4934712;29;20205;-72
2023/01/07 04:20:47;;;;;;;13.10;10.18;;;;;;;7.20;100.00;101230.53;4937620;29;20606;-73
2023/01/07 04:23:18;;;;;;;13.85;10.63;;;;;;;7.10;100.00;101235.28;4936906;29;20295;-73
2023/01/07 04:25:50;;;;;;;17.63;10.70;;;;;;;7.06;100.00;101230.41;4936664;29;20231;-72
2023/01/07 04:28:23;;;;;;;14.23;9.60;;;;;;;7.14;100.00;101228.53;4921728;29;20248;-74
2023/01/07 04:30:52;;;;;;;13.27;9.52;;;;;;;7.03;100.00;101228.88;4921962;29;20638;-73
2023/01/07 04:33:22;;;;;;;13.43;10.85;;;;;;;7.10;100.00;101223.66;4936643;29;20203;-73
2023/01/07 04:35:51;;;;;;;12.10;9.65;;;;;;;7.09;100.00;101217.44;4937465;29;20601;-73
2023/01/07 04:38:22;;;;;;;13.73;9.35;;;;;;;7.17;100.00;101220.09;4938940;29;20216;-74
2023/01/07 04:40:51;;;;;;;15.77;11.35;;;;;;;7.20;100.00;101225.16;4938563;29;20216;-72
2023/01/07 04:43:20;;;;;;;13.48;9.70;;;;;;;7.20;100.00;101230.53;4938297;29;20195;-73
2023/01/07 04:45:49;;;;;;;13.90;10.25;;;;;;;7.27;100.00;101226.13;4917535;29;20227;-72
2023/01/07 04:48:19;;;;;;;16.83;12.65;;;;;;;7.45;100.00;101227.78;4935464;29;20297;-73
2023/01/07 04:50:55;;;;;;;12.50;9.73;;;;;;;7.55;100.00;101228.41;4922399;29;20220;-73
2023/01/07 04:53:25;;;;;;;18.38;12.30;;;;;;;7.67;100.00;101227.00;4929598;29;20220;-73
2023/01/07 04:55:55;;;;;;;14.38;10.18;;;;;;;7.80;100.00;101227.25;4935451;29;20731;-73
2023/01/07 04:58:24;;;;;;;12.50;10.23;;;;;;;7.82;100.00;101230.63;4936955;29;20227;-73
2023/01/07 05:00:57;;;;;;;14.05;10.60;;;;;;;7.87;100.00;101228.25;4935831;29;20279;-72
2023/01/07 05:03:27;;;;;;;13.50;9.55;;;;;;;7.91;100.00;101229.56;4937018;29;20197;-73
2023/01/07 05:05:57;;;;;;;14.20;9.95;;;;;;;8.00;100.00;101227.66;4936446;29;20216;-72
2023/01/07 05:08:28;;;;;;;13.30;11.73;;;;;;;7.90;100.00;101233.28;4915463;29;20196;-72
2023/01/07 05:10:58;;;;;;;11.63;9.63;;;;;;;7.85;100.00;101227.56;4935817;29;20291;-72
2023/01/07 05:13:30;;;;;;;14.35;9.35;;;;;;;7.95;100.00;101238.13;4934565;28;20188;-72
2023/01/07 05:16:01;;;;;;;12.52;9.75;;;;;;;8.04;100.00;101227.13;4921515;29;20227;-73
2023/01/07 05:18:32;;;;;;;11.60;8.88;;;;;;;8.09;100.00;101234.69;4942691;29;20201;-74
2023/01/07 05:21:04;;;;;;;14.18;10.85;;;;;;;8.08;100.00;101223.09;4938645;29;20196;-75
2023/01/07 05:23:36;;;;;;;15.27;10.57;;;;;;;8.11;100.00;101225.41;4950729;23;20216;-75
2023/01/07 05:26:05;;;;;;;13.90;10.60;;;;;;;8.20;100.00;101224.34;4952449;28;20227;-75
2023/01/07 05:28:34;;;;;;;16.58;12.40;;;;;;;8.13;100.00;101222.56;4935935;29;20675;-75
2023/01/07 05:31:03;;;;;;;16.65;12.15;;;;;;;8.05;100.00;101215.34;4933074;29;20669;-74
2023/01/07 05:33:34;;;;;;;16.38;12.63;;;;;;;8.06;100.00;101219.72;4929878;29;20201;-74
2023/01/07 05:36:03;;;;;;;16.55;11.35;;;;;;;8.15;100.00;101224.03;4924771;29;20602;-74
2023/01/07 05:38:33;;;;;;;13.85;10.18;;;;;;;8.11;100.00;101216.50;4932560;28;20297;-74
2023/01/07 05:41:04;;;;;;;12.77;10.15;;;;;;;8.04;100.00;101212.81;4927747;29;20296;-75
2023/01/07 05:43:33;;;;;;;10.60;8.63;;;;;;;8.13;100.00;101212.59;4913413;29;20200;-74
2023/01/07 05:46:02;;;;;;;12.43;9.90;;;;;;;8.18;100.00;101212.88;4917967;29;20224;-74
2023/01/07 05:48:31;;;;;;;11.85;9.43;;;;;;;8.26;100.00;101215.56;4935495;29;20197;-75
2023/01/07 05:51:00;;;;;;;17.00;9.90;;;;;;;8.44;100.00;101214.44;4928264;29;20559;-74
2023/01/07 05:53:29;;;;;;;14.88;11.70;;;;;;;8.46;100.00;101217.78;4931520;29;20675;-75
2023/01/07 05:55:59;;;;;;;14.93;11.15;;;;;;;8.36;100.00;101209.94;4934890;29;20248;-74
2023/01/07 05:58:30;;;;;;;15.32;9.95;;;;;;;8.56;100.00;101210.31;4934630;29;20211;-74
2023/01/07 06:00:59;;;;;;;14.85;9.70;;;;;;;8.61;100.00;101210.59;4931806;29;20197;-74
2023/01/07 06:03:28;;;;;;;12.10;8.88;;;;;;;8.61;100.00;101216.00;4933979;29;20201;-74
2023/01/07 06:05:57;;;;;;;12.35;9.40;;;;;;;8.45;100.00;101205.31;4935528;29;20707;-73
2023/01/07 06:08:26;;;;;;;13.48;9.95;;;;;;;8.68;100.00;101206.13;4934500;29;20205;-73
2023/01/07 06:10:55;;;;;;;14.30;9.70;;;;;;;8.58;100.00;101206.38;4931473;29;20208;-75
2023/01/07 06:13:24;;;;;;;11.18;9.32;;;;;;;8.59;100.00;101208.06;4935553;29;20192;-73
2023/01/07 06:15:59;;;;;;;12.45;8.45;;;;;;;8.42;100.00;101211.09;4935700;29;20220;-73
2023/01/07 06:18:28;;;;;;;13.77;9.55;;;;;;;8.44;100.00;101214.44;4932400;29;20263;-74
2023/01/07 06:20:57;;;;;;;11.20;8.95;;;;;;;8.40;100.00;101216.66;4933035;29;20564;-73
2023/01/07 06:23:26;;;;;;;10.77;8.52;;;;;;;8.61;100.00;101216.84;4938311;29;20261;-73
2023/01/07 06:25:55;;;;;;;15.75;9.15;;;;;;;8.43;100.00;101218.97;4937781;29;20236;-74
2023/01/07 06:28:24;;;;;;;11.73;8.73;;;;;;;8.51;100.00;101226.19;4923548;29;20205;-75
2023/01/07 06:30:55;;;;;;;12.65;9.75;;;;;;;8.49;100.00;101215.56;4940255;29;20871;-74
2023/01/07 06:33:24;;;;;;;11.00;8.38;;;;;;;8.46;100.00;101212.41;4939129;29;20200;-74
2023/01/07 06:35:53;;;;;;;13.50;8.27;;;;;;;8.45;100.00;101205.31;4913836;29;20225;-74
2023/01/07 06:38:22;;;;;;;9.17;7.90;;;;;;;8.50;100.00;101211.00;4937283;29;20196;-73
2023/01/07 06:40:51;;;;;;;12.18;9.60;;;;;;;8.38;100.00;101217.84;4933597;29;20411;-73
2023/01/07 06:43:20;;;;;;;14.35;9.50;;;;;;;8.43;100.00;101221.69;4939284;29;20208;-73
2023/01/07 06:45:49;;;;;;;12.88;9.70;;;;;;;8.46;100.00;101223.19;4934925;29;20243;-73
2023/01/07 06:48:20;;;;;;;12.77;9.13;;;;;;;8.49;100.00;101223.66;4931996;29;20296;-74
2023/01/07 06:50:49;;;;;;;11.43;8.90;;;;;;;8.29;100.00;101212.50;4919807;29;20220;-74
2023/01/07 06:53:18;;;;;;;12.13;10.00;;;;;;;8.43;100.00;101212.75;4919311;29;20215;-74
2023/01/07 06:55:49;;;;;;;10.93;8.52;;;;;;;8.34;100.00;101203.03;4918622;29;20785;-75
2023/01/07 06:58:18;;;;;;;12.57;8.90;;;;;;;8.45;100.00;101210.72;4932476;29;20220;-75
2023/01/07 07:00:47;;;;;;;12.40;8.90;;;;;;;8.45;100.00;101216.94;4933156;29;20193;-73
2023/01/07 07:03:16;;;;;;;10.90;7.47;;;;;;;8.25;100.00;101221.94;4937134;29;20236;-73
2023/01/07 07:05:47;;;;;;;10.95;8.55;;;;;;;8.36;100.00;101217.19;4934439;29;20244;-74
2023/01/07 07:08:16;;;;;;;12.18;9.68;;;;;;;8.37;100.00;101218.88;4930699;29;20679;-74
2023/01/07 07:10:45;;;;;;;10.75;8.05;;;;;;;8.21;100.00;101219.78;4933887;29;20188;-73
2023/01/07 07:13:14;;;;;;;10.32;8.30;;;;;;;8.39;100.00;101217.66;4932900;29;20188;-74
2023/01/07 07:15:43;;;;;;;10.50;8.60;;;;;;;8.45;100.00;101221.50;4933828;29;20221;-74
2023/01/07 07:18:12;;;;;;;11.70;9.15;;;;;;;8.42;100.00;101227.28;4923369;29;20248;-73
2023/01/07 07:20:41;;;;;;;15.60;9.00;;;;;;;8.37;100.00;101224.28;4933906;29;20207;-73
2023/01/07 07:23:11;;;;;;;11.45;9.02;;;;;;;8.29;100.00;101223.28;4925291;29;20289;-74
2023/01/07 07:25:40;;;;;;;11.23;7.93;;;;;;;8.45;100.00;101233.13;4934202;29;20232;-74
2023/01/07 07:28:09;;;;;;;8.13;6.53;;;;;;;8.54;100.00;101223.97;4931166;29;20738;-75
2023/01/07 07:30:40;;;;;;;9.52;8.38;;;;;;;8.53;100.00;101227.66;4932559;29;20201;-74
2023/01/07 07:33:17;;;;;;;8.67;6.57;;;;;;;8.69;100.00;101227.53;4932348;29;20702;-74
2023/01/07 07:35:48;;;;;;;11.82;8.70;;;;;;;8.70;100.00;101225.69;4933422;29;20464;-74
2023/01/07 07:38:18;;;;;;;9.00;7.10;;;;;;;8.67;100.00;101226.88;4933569;29;20371;-74
2023/01/07 07:40:47;;;;;;;13.30;7.63;;;;;;;8.46;100.00;101223.19;4931221;29;20428;-76
2023/01/07 07:43:16;;;;;;;9.55;7.07;;;;;;;8.60;100.00;101234.03;4932984;29;20199;-73
2023/01/07 07:45:45;;;;;;;12.82;6.70;;;;;;;8.63;100.00;101235.50;4934330;29;20221;-74
2023/01/07 07:48:15;;;;;;;9.35;6.82;;;;;;;8.56;100.00;101229.19;4934088;29;20193;-73
2023/01/07 07:50:44;;;;;;;9.48;7.43;;;;;;;8.43;100.00;101235.16;4924665;29;20200;-74
2023/01/07 07:53:14;;;;;;;10.60;7.57;;;;;;;8.34;100.00;101224.63;4932177;29;20293;-74
2023/01/07 07:55:45;;;;;;;8.70;6.18;;;;;;;8.51;100.00;101240.50;4932381;29;20464;-74
2023/01/07 07:58:14;;;;;;;9.30;7.27;;;;;;;8.59;100.00;101234.19;4929049;29;20200;-75
2023/01/07 08:00:43;;;;;;;10.68;6.90;;;;;;;8.61;100.00;101238.41;4933678;29;20505;-76
2023/01/07 08:03:12;;;;;;;8.80;6.88;;;;;;;8.58;100.00;101232.53;4918855;29;20197;-77
2023/01/07 08:05:43;;;;;;;8.77;6.77;;;;;;;8.57;100.00;101241.63;4935268;29;20212;-76
2023/01/07 08:08:14;;;;;;;10.07;7.10;;;;;;;8.61;100.00;101237.56;4917979;29;20444;-75
2023/01/07 08:10:45;;;;;;;10.63;6.10;;;;;;;8.58;100.00;101227.97;4918073;29;20437;-74
2023/01/07 08:13:14;;;;;;;8.93;7.72;;;;;;;8.58;100.00;101216.34;4920148;29;20231;-75
2023/01/07 08:15:43;;;;;;;7.40;6.17;;;;;;;8.66;100.00;101221.69;4932889;29;20216;-74
2023/01/07 08:18:12;;;;;;;7.68;6.97;;;;;;;8.73;100.00;101225.31;4932292;29;20779;-74
2023/01/07 08:20:41;;;;;;;10.17;6.40;;;;;;;8.73;100.00;101218.06;4932774;29;20699;-73
2023/01/07 08:23:10;;;;;;;9.30;6.97;;;;;;;8.65;100.00;101234.31;4933955;29;20434;-75
2023/01/07 08:25:39;;;;;;;7.10;5.80;;;;;;;8.77;100.00;101232.03;4936665;29;20435;-74
2023/01/07 08:28:11;;;;;;;8.40;6.35;;;;;;;8.71;100.00;101227.38;4939893;29;20432;-74
2023/01/07 08:30:40;;;;;;;13.40;6.57;;;;;;;8.72;100.00;101224.47;4936776;29;20204;-74
2023/01/07 08:33:09;;;;;;;9.00;6.70;;;;;;;8.84;100.00;101226.75;4935066;29;20544;-74
2023/01/07 08:35:38;;;;;;;8.67;7.57;;;;;;;9.04;100.00;101222.50;4937262;29;20829;-74
2023/01/07 08:38:08;;;;;;;7.30;6.30;;;;;;;9.23;100.00;101215.72;4937380;29;20469;-74
2023/01/07 08:40:38;;;;;;;11.33;7.07;;;;;;;9.06;100.00;101220.44;4930372;29;20451;-74
2023/01/07 08:43:09;;;;;;;11.00;6.65;;;;;;;9.20;99.97;101224.19;4935487;29;20450;-73
2023/01/07 08:45:38;;;;;;;6.67;5.70;;;;;;;9.14;100.00;101223.91;4939447;29;20221;-73
2023/01/07 08:48:08;;;;;;;7.07;6.03;;;;;;;9.21;100.00;101223.16;4957121;29;21054;-75
2023/01/07 08:50:37;;;;;;;7.63;6.20;;;;;;;9.33;99.71;101218.97;4955725;29;20446;-74
2023/01/07 08:53:05;;;;;;;6.53;5.80;;;;;;;9.48;97.22;101219.81;4957822;29;20567;-76
2023/01/07 08:55:35;;;;;;;9.73;7.03;;;;;;;9.58;97.25;101217.69;4959153;29;20441;-74
2023/01/07 08:58:03;;;;;;;11.00;5.90;;;;;;;9.41;97.25;101214.31;4946984;29;20454;-74
2023/01/07 09:00:34;;;;;;;8.43;7.00;;;;;;;9.35;97.72;101216.91;4939164;29;20454;-75
2023/01/07 09:03:03;;;;;;;7.70;6.00;;;;;;;9.45;97.69;101215.63;4944723;29;20428;-74
2023/01/07 09:05:32;;;;;;;6.90;5.17;;;;;;;9.47;97.23;101218.97;4939026;29;20551;-74
2023/01/07 09:08:03;;;;;;;6.60;5.67;;;;;;;9.37;97.27;101213.03;4939363;29;20432;-75
2023/01/07 09:10:32;;;;;;;8.23;6.00;;;;;;;9.49;97.23;101213.38;4918214;29;20772;-73
2023/01/07 09:13:01;;;;;;;8.30;6.30;;;;;;;9.35;97.57;101214.22;4935718;29;20248;-75
2023/01/07 09:15:34;;;;;;;7.37;5.93;;;;;;;9.58;96.41;101218.47;4939352;29;20469;-73
2023/01/07 09:18:03;;;;;;;6.10;4.97;;;;;;;9.43;96.17;101216.84;4941053;29;20411;-75
2023/01/07 09:20:33;;;;;;;6.17;5.17;;;;;;;9.27;97.16;101217.03;4935282;29;20413;-73
2023/01/07 09:23:02;;;;;;;6.37;5.20;;;;;;;9.38;97.51;101213.84;4937408;29;20449;-76
2023/01/07 09:25:30;;;;;;;6.83;5.23;;;;;;;9.59;97.29;101212.06;4937146;29;20551;-74
2023/01/07 09:27:59;;;;;;;8.90;6.17;;;;;;;9.43;96.82;101212.28;4938461;29;20650;-74
2023/01/07 09:30:29;;;;;;;7.60;5.60;;;;;;;9.49;96.88;101216.06;4921793;29;20490;-75
2023/01/07 09:33:00;;;;;;;8.10;6.10;;;;;;;9.54;96.43;101208.25;4938163;29;20439;-74
2023/01/07 09:35:30;;;;;;;6.43;5.30;;;;;;;9.52;96.11;101210.31;4932507;29;20460;-74
2023/01/07 09:37:59;;;;;;;6.27;5.20;;;;;;;9.60;95.99;101218.31;4943782;29;20437;-74
2023/01/07 09:40:31;;;;;;;7.20;5.73;;;;;;;9.83;94.99;101218.16;4940875;29;20403;-76
2023/01/07 09:43:07;;;;;;;6.00;5.10;;;;;;;9.90;94.01;101214.53;4948599;29;20789;-73
2023/01/07 09:45:40;;;;;;;5.93;4.50;;;;;;;9.89;93.37;101212.00;4940508;29;20535;-74
2023/01/07 09:48:20;;;;;;;6.93;5.80;;;;;;;9.97;93.16;101212.72;4942815;29;20473;-75
2023/01/07 09:50:57;;;;;;;5.53;4.70;;;;;;;10.07;93.08;101215.13;4926283;29;20516;-74
2023/01/07 09:53:30;;;;;;;8.77;5.20;;;;;;;10.03;92.97;101203.03;4943419;29;20468;-73
2023/01/07 09:56:03;;;;;;;5.30;4.60;;;;;;;9.98;92.40;101194.66;4941850;29;20432;-73
2023/01/07 09:58:45;;;;;;;5.73;4.87;;;;;;;10.10;92.09;101200.41;4932056;29;20972;-74
2023/01/07 10:01:23;;;;;;;7.37;5.07;;;;;;;10.12;91.82;101201.88;4915871;29;20962;-74
2023/01/07 10:04:08;;;;;;;4.93;4.47;;;;;;;10.20;91.51;101203.66;4935689;29;20849;-74
2023/01/07 10:06:46;;;;;;;8.73;5.07;;;;;;;10.12;92.26;101195.66;4938069;29;20415;-73
2023/01/07 10:09:29;;;;;;;7.67;5.50;;;;;;;10.47;90.74;101197.47;4937707;29;20467;-74
2023/01/07 10:12:06;;;;;;;6.40;4.23;;;;;;;10.46;90.89;101198.50;4940461;29;20439;-74
2023/01/07 10:14:49;;;;;;;8.53;5.20;;;;;;;10.50;90.26;101189.00;4923053;29;20434;-75
2023/01/07 10:17:29;;;;;;;5.97;5.07;;;;;;;10.55;90.30;101189.25;4939520;29;20407;-75
2023/01/07 10:20:11;;;;;;;5.20;4.70;;;;;;;10.53;89.95;101185.88;4938437;29;20433;-76
2023/01/07 10:22:48;;;;;;;6.00;4.10;;;;;;;10.61;88.50;101187.59;4944020;29;20444;-75
2023/01/07 10:25:22;;;;;;;3.97;3.53;;;;;;;10.59;89.41;101190.53;4933117;29;20458;-74
2023/01/07 10:27:54;;;;;;;5.40;4.90;;;;;;;10.65;89.09;101176.19;4933086;29;20852;-73
2023/01/07 10:30:27;;;;;;;6.43;3.70;;;;;;;10.71;88.77;101167.28;4915610;29;20812;-75
2023/01/07 10:33:04;;;;;;;5.13;4.40;;;;;;;10.59;88.90;101160.75;4934204;29;20439;-74
2023/01/07 10:35:39;;;;;;;7.83;4.47;;;;;;;10.74;87.82;101158.81;4940355;29;20458;-73
2023/01/07 10:38:15;;;;;;;8.23;5.30;;;;;;;10.97;86.35;101153.13;4936479;29;20437;-76
2023/01/07 10:40:49;;;;;;;4.27;3.80;;;;;;;10.77;87.20;101154.84;4935575;29;20425;-74
2023/01/07 10:43:34;;;;;;;5.90;4.67;;;;;;;10.50;88.15;101156.53;4935087;29;20439;-74
2023/01/07 10:46:21;;;;;;;13.80;4.93;;;;;;;10.61;88.56;101153.25;4934371;29;20431;-77
2023/01/07 10:49:18;;;;;;;6.03;5.00;;;;;;;10.67;88.72;101147.06;4928258;29;20747;-75
2023/01/07 10:52:22;;;;;;;5.30;4.17;;;;;;;10.64;87.93;101147.47;4932643;29;20411;-75
2023/01/07 10:55:25;;;;;;;5.40;4.70;;;;;;;10.50;89.25;101155.69;4914449;29;20462;-74
2023/01/07 10:57:55;;;;;;;5.43;4.60;;;;;;;10.60;88.73;101143.47;4922271;29;20422;-76
2023/01/07 11:00:25;;;;;;;3.83;3.43;;;;;;;10.57;88.74;101129.50;4931357;29;20458;-74
2023/01/07 11:02:59;;;;;;;11.93;4.67;;;;;;;10.42;89.46;101129.59;4929729;29;20774;-75
2023/01/07 11:05:36;;;;;;;8.10;4.17;;;;;;;10.35;89.51;101136.81;4929223;29;20440;-73
2023/01/07 11:08:23;;;;;;;5.63;4.47;;;;;;;10.39;90.25;101127.28;4927197;29;20422;-73
2023/01/07 11:10:52;;;;;;;6.37;4.20;;;;;;;10.55;88.92;101115.34;4927274;29;20871;-74
2023/01/07 11:13:26;;;;;;;8.13;4.60;;;;;;;10.65;88.13;101113.94;4933113;29;20464;-74
2023/01/07 11:15:58;;;;;;;6.83;5.07;;;;;;;10.48;88.84;101114.44;4932145;29;20435;-74
2023/01/07 11:18:34;;;;;;;7.40;3.90;;;;;;;10.25;89.26;101111.97;4917093;29;20426;-74
2023/01/07 11:21:03;;;;;;;4.90;3.77;;;;;;;10.30;89.99;101112.22;4933863;29;20802;-73
2023/01/07 11:23:36;;;;;;;7.70;4.93;;;;;;;10.12;90.55;101109.13;5019279;23;20829;-73
2023/01/07 11:26:17;;;;;;;5.80;4.57;;;;;;;10.18;90.92;101098.38;4933104;28;20482;-74
2023/01/07 11:28:53;;;;;;;5.90;4.47;;;;;;;10.36;90.45;101101.44;4930796;29;20776;-72
2023/01/07 11:31:24;;;;;;;6.33;4.37;;;;;;;10.48;89.36;101093.63;4932780;29;20402;-73
2023/01/07 11:33:54;;;;;;;4.73;4.27;;;;;;;10.63;88.47;101091.66;4935864;29;20567;-73
2023/01/07 11:36:43;;;;;;;8.67;4.53;;;;;;;10.52;87.99;101094.91;4932388;29;20402;-72
2023/01/07 11:39:21;;;;;;;3.73;3.40;;;;;;;10.54;87.92;101098.28;4933964;29;20818;-71
2023/01/07 11:41:58;;;;;;;7.30;3.40;;;;;;;10.51;88.31;101098.63;4934175;29;20444;-71
2023/01/07 11:44:27;;;;;;;5.40;4.30;;;;;;;10.67;87.69;101103.75;4937203;29;20869;-73
2023/01/07 11:46:56;;;;;;;5.50;3.37;;;;;;;10.73;87.29;101094.88;4934539;29;20445;-73